sensor_id;sensor_type;location;lat;lon;timestamp;temperature;humidity
16846;DHT22;8539;53.188;8.696;2023-02-18T00:01:31;5.20;99.90
16846;DHT22;8539;53.188;8.696;2023-02-18T00:03:58;5.30;99.90
16846;DHT22;8539;53.188;8.696;2023-02-18T00:06:33;5.30;99.90
16846;DHT22;8539;53.188;8.696;2023-02-18T00:09:00;5.30;99.90
16846;DHT22;8539;53.188;8.696;2023-02-18T00:11:28;5.30;99.90
16846;DHT22;8539;53.188;8.696;2023-02-18T00:13:59;5.30;99.90
16846;DHT22;8539;53.188;8.696;2023-02-18T00:16:27;5.30;99.90
16846;DHT22;8539;53.188;8.696;2023-02-18T00:19:01;5.30;99.90
16846;DHT22;8539;53.188;8.696;2023-02-18T00:21:27;5.40;99.90
16846;DHT22;8539;53.188;8.696;2023-02-18T00:23:54;5.40;99.90
16846;DHT22;8539;53.188;8.696;2023-02-18T00:26:20;5.40;99.90
16846;DHT22;8539;53.188;8.696;2023-02-18T00:28:47;5.40;99.90
16846;DHT22;8539;53.188;8.696;2023-02-18T00:31:28;5.60;99.90
16846;DHT22;8539;53.188;8.696;2023-02-18T00:33:56;5.40;99.90
16846;DHT22;8539;53.188;8.696;2023-02-18T00:36:23;5.40;99.90
16846;DHT22;8539;53.188;8.696;2023-02-18T00:38:51;5.40;99.90
16846;DHT22;8539;53.188;8.696;2023-02-18T00:41:19;5.50;99.90
16846;DHT22;8539;53.188;8.696;2023-02-18T00:43:45;5.50;99.90
16846;DHT22;8539;53.188;8.696;2023-02-18T00:46:12;5.50;99.90
16846;DHT22;8539;53.188;8.696;2023-02-18T00:48:38;5.50;99.90
16846;DHT22;8539;53.188;8.696;2023-02-18T00:51:05;5.60;99.90
16846;DHT22;8539;53.188;8.696;2023-02-18T00:53:32;5.60;99.90
16846;DHT22;8539;53.188;8.696;2023-02-18T00:55:59;5.70;99.90
16846;DHT22;8539;53.188;8.696;2023-02-18T00:58:26;5.70;99.90
16846;DHT22;8539;53.188;8.696;2023-02-18T01:00:53;5.70;99.90
16846;DHT22;8539;53.188;8.696;2023-02-18T01:03:19;5.70;99.90
16846;DHT22;8539;53.188;8.696;2023-02-18T01:05:47;5.80;99.90
16846;DHT22;8539;53.188;8.696;2023-02-18T01:08:16;5.80;99.90
16846;DHT22;8539;53.188;8.696;2023-02-18T01:10:44;5.80;99.90
16846;DHT22;8539;53.188;8.696;2023-02-18T01:13:11;5.80;99.90
16846;DHT22;8539;53.188;8.696;2023-02-18T01:15:39;5.80;99.90
16846;DHT22;8539;53.188;8.696;2023-02-18T01:18:06;5.90;99.90
16846;DHT22;8539;53.188;8.696;2023-02-18T01:20:37;5.80;99.90
16846;DHT22;8539;53.188;8.696;2023-02-18T01:23:04;5.90;99.90
16846;DHT22;8539;53.188;8.696;2023-02-18T01:25:30;5.90;99.90
16846;DHT22;8539;53.188;8.696;2023-02-18T01:27:57;5.90;99.90
16846;DHT22;8539;53.188;8.696;2023-02-18T01:30:23;6.00;99.90
16846;DHT22;8539;53.188;8.696;2023-02-18T01:32:49;6.00;99.90
16846;DHT22;8539;53.188;8.696;2023-02-18T01:35:17;6.00;99.90
16846;DHT22;8539;53.188;8.696;2023-02-18T01:37:44;6.00;99.90
16846;DHT22;8539;53.188;8.696;2023-02-18T01:40:14;6.00;99.90
16846;DHT22;8539;53.188;8.696;2023-02-18T01:42:40;6.10;99.90
16846;DHT22;8539;53.188;8.696;2023-02-18T01:50:30;6.10;99.90
16846;DHT22;8539;53.188;8.696;2023-02-18T01:52:58;6.10;99.90
16846;DHT22;8539;53.188;8.696;2023-02-18T01:55:25;6.10;99.90
16846;DHT22;8539;53.188;8.696;2023-02-18T01:57:51;6.10;99.90
16846;DHT22;8539;53.188;8.696;2023-02-18T02:00:19;6.20;99.90
16846;DHT22;8539;53.188;8.696;2023-02-18T02:02:47;6.20;99.90
16846;DHT22;8539;53.188;8.696;2023-02-18T02:05:15;6.20;99.90
16846;DHT22;8539;53.188;8.696;2023-02-18T02:07:42;6.20;99.90
16846;DHT22;8539;53.188;8.696;2023-02-18T02:10:11;6.20;99.90
16846;DHT22;8539;53.188;8.696;2023-02-18T02:13:20;6.20;99.90
16846;DHT22;8539;53.188;8.696;2023-02-18T02:16:10;6.20;99.90
16846;DHT22;8539;53.188;8.696;2023-02-18T02:18:58;6.30;99.90
16846;DHT22;8539;53.188;8.696;2023-02-18T02:24:57;6.30;99.90
16846;DHT22;8539;53.188;8.696;2023-02-18T02:30:44;6.40;99.90
16846;DHT22;8539;53.188;8.696;2023-02-18T02:44:20;6.30;99.90
16846;DHT22;8539;53.188;8.696;2023-02-18T02:46:53;6.30;99.90
16846;DHT22;8539;53.188;8.696;2023-02-18T02:49:41;6.40;99.90
16846;DHT22;8539;53.188;8.696;2023-02-18T02:52:32;6.40;99.90
16846;DHT22;8539;53.188;8.696;2023-02-18T02:54:59;6.40;99.90
16846;DHT22;8539;53.188;8.696;2023-02-18T02:59:55;6.40;99.90
16846;DHT22;8539;53.188;8.696;2023-02-18T03:02:40;6.40;99.90
16846;DHT22;8539;53.188;8.696;2023-02-18T03:11:05;6.50;99.90
16846;DHT22;8539;53.188;8.696;2023-02-18T03:13:52;6.50;99.90
16846;DHT22;8539;53.188;8.696;2023-02-18T03:19:25;6.50;99.90
16846;DHT22;8539;53.188;8.696;2023-02-18T03:22:07;6.50;99.90
16846;DHT22;8539;53.188;8.696;2023-02-18T03:24:41;6.50;99.90
16846;DHT22;8539;53.188;8.696;2023-02-18T03:27:17;6.50;99.90
16846;DHT22;8539;53.188;8.696;2023-02-18T03:29:47;6.50;99.90
16846;DHT22;8539;53.188;8.696;2023-02-18T03:32:17;6.50;99.90
16846;DHT22;8539;53.188;8.696;2023-02-18T03:34:48;6.50;99.90
16846;DHT22;8539;53.188;8.696;2023-02-18T03:37:15;6.60;99.90
16846;DHT22;8539;53.188;8.696;2023-02-18T03:39:45;6.60;99.90
16846;DHT22;8539;53.188;8.696;2023-02-18T03:42:15;6.60;99.90
16846;DHT22;8539;53.188;8.696;2023-02-18T03:44:41;6.50;99.90
16846;DHT22;8539;53.188;8.696;2023-02-18T03:47:08;6.60;99.90
16846;DHT22;8539;53.188;8.696;2023-02-18T03:49:34;6.50;99.90
16846;DHT22;8539;53.188;8.696;2023-02-18T03:52:00;6.60;99.90
16846;DHT22;8539;53.188;8.696;2023-02-18T03:54:26;6.50;99.90
16846;DHT22;8539;53.188;8.696;2023-02-18T03:56:52;6.50;99.90
16846;DHT22;8539;53.188;8.696;2023-02-18T03:59:18;6.50;99.90
16846;DHT22;8539;53.188;8.696;2023-02-18T04:01:44;6.40;99.90
16846;DHT22;8539;53.188;8.696;2023-02-18T04:04:10;6.40;99.90
16846;DHT22;8539;53.188;8.696;2023-02-18T04:06:36;6.40;99.90
16846;DHT22;8539;53.188;8.696;2023-02-18T04:09:03;6.40;99.90
16846;DHT22;8539;53.188;8.696;2023-02-18T04:11:38;6.40;99.90
16846;DHT22;8539;53.188;8.696;2023-02-18T04:14:04;6.40;99.90
16846;DHT22;8539;53.188;8.696;2023-02-18T04:16:30;6.40;99.90
16846;DHT22;8539;53.188;8.696;2023-02-18T04:18:56;6.40;99.90
16846;DHT22;8539;53.188;8.696;2023-02-18T04:21:22;6.30;99.90
16846;DHT22;8539;53.188;8.696;2023-02-18T04:23:49;6.30;99.90
16846;DHT22;8539;53.188;8.696;2023-02-18T04:26:15;6.30;99.90
16846;DHT22;8539;53.188;8.696;2023-02-18T04:28:41;6.30;99.90
16846;DHT22;8539;53.188;8.696;2023-02-18T04:31:07;6.30;99.90
16846;DHT22;8539;53.188;8.696;2023-02-18T04:33:33;6.40;99.90
16846;DHT22;8539;53.188;8.696;2023-02-18T04:35:59;6.30;99.90
16846;DHT22;8539;53.188;8.696;2023-02-18T04:38:25;6.40;99.90
16846;DHT22;8539;53.188;8.696;2023-02-18T04:40:51;6.30;99.90
16846;DHT22;8539;53.188;8.696;2023-02-18T04:43:17;6.40;99.90
16846;DHT22;8539;53.188;8.696;2023-02-18T04:45:43;6.30;99.90
16846;DHT22;8539;53.188;8.696;2023-02-18T04:48:09;6.30;99.90
16846;DHT22;8539;53.188;8.696;2023-02-18T04:50:35;6.40;99.90
16846;DHT22;8539;53.188;8.696;2023-02-18T04:53:02;6.30;99.90
16846;DHT22;8539;53.188;8.696;2023-02-18T04:55:28;6.20;99.90
16846;DHT22;8539;53.188;8.696;2023-02-18T04:57:54;6.30;99.90
16846;DHT22;8539;53.188;8.696;2023-02-18T05:00:20;6.20;99.90
16846;DHT22;8539;53.188;8.696;2023-02-18T05:02:46;6.10;99.90
16846;DHT22;8539;53.188;8.696;2023-02-18T05:05:14;6.20;99.90
16846;DHT22;8539;53.188;8.696;2023-02-18T05:07:40;6.10;99.90
16846;DHT22;8539;53.188;8.696;2023-02-18T05:10:11;6.10;99.90
16846;DHT22;8539;53.188;8.696;2023-02-18T05:12:39;6.10;99.90
16846;DHT22;8539;53.188;8.696;2023-02-18T05:15:05;6.10;99.90
16846;DHT22;8539;53.188;8.696;2023-02-18T05:17:31;6.10;99.90
16846;DHT22;8539;53.188;8.696;2023-02-18T05:19:58;6.20;99.90
16846;DHT22;8539;53.188;8.696;2023-02-18T05:22:24;6.00;99.90
16846;DHT22;8539;53.188;8.696;2023-02-18T05:24:50;6.00;99.90
16846;DHT22;8539;53.188;8.696;2023-02-18T05:27:16;6.10;99.90
16846;DHT22;8539;53.188;8.696;2023-02-18T05:29:42;6.10;99.90
16846;DHT22;8539;53.188;8.696;2023-02-18T05:32:08;6.10;99.90
16846;DHT22;8539;53.188;8.696;2023-02-18T05:34:34;6.20;99.90
16846;DHT22;8539;53.188;8.696;2023-02-18T05:37:00;6.20;99.90
16846;DHT22;8539;53.188;8.696;2023-02-18T05:39:26;6.30;99.90
16846;DHT22;8539;53.188;8.696;2023-02-18T05:41:52;6.30;99.90
16846;DHT22;8539;53.188;8.696;2023-02-18T05:44:18;6.40;99.90
16846;DHT22;8539;53.188;8.696;2023-02-18T05:46:58;6.40;99.90
16846;DHT22;8539;53.188;8.696;2023-02-18T05:49:26;6.50;99.90
16846;DHT22;8539;53.188;8.696;2023-02-18T05:51:52;6.40;99.90
16846;DHT22;8539;53.188;8.696;2023-02-18T05:54:18;6.40;99.90
16846;DHT22;8539;53.188;8.696;2023-02-18T05:56:44;6.40;99.90
16846;DHT22;8539;53.188;8.696;2023-02-18T05:59:10;6.50;99.90
16846;DHT22;8539;53.188;8.696;2023-02-18T06:01:36;6.50;99.90
16846;DHT22;8539;53.188;8.696;2023-02-18T06:04:03;6.50;99.90
16846;DHT22;8539;53.188;8.696;2023-02-18T06:06:29;6.50;99.90
16846;DHT22;8539;53.188;8.696;2023-02-18T06:08:55;6.50;99.90
16846;DHT22;8539;53.188;8.696;2023-02-18T06:11:21;6.50;99.90
16846;DHT22;8539;53.188;8.696;2023-02-18T06:13:47;6.50;99.90
16846;DHT22;8539;53.188;8.696;2023-02-18T06:16:13;6.60;99.90
16846;DHT22;8539;53.188;8.696;2023-02-18T06:18:40;6.50;99.90
16846;DHT22;8539;53.188;8.696;2023-02-18T06:21:06;6.50;99.90
16846;DHT22;8539;53.188;8.696;2023-02-18T06:23:32;6.40;99.90
16846;DHT22;8539;53.188;8.696;2023-02-18T06:25:58;6.40;99.90
16846;DHT22;8539;53.188;8.696;2023-02-18T06:28:24;6.40;99.90
16846;DHT22;8539;53.188;8.696;2023-02-18T06:30:50;6.40;99.90
16846;DHT22;8539;53.188;8.696;2023-02-18T06:33:16;6.40;99.90
16846;DHT22;8539;53.188;8.696;2023-02-18T06:35:52;6.40;99.90
16846;DHT22;8539;53.188;8.696;2023-02-18T06:38:18;6.40;99.90
16846;DHT22;8539;53.188;8.696;2023-02-18T06:40:46;6.40;99.90
16846;DHT22;8539;53.188;8.696;2023-02-18T06:43:12;6.40;99.90
16846;DHT22;8539;53.188;8.696;2023-02-18T06:45:39;6.50;99.90
16846;DHT22;8539;53.188;8.696;2023-02-18T06:48:05;6.40;99.90
16846;DHT22;8539;53.188;8.696;2023-02-18T06:50:31;6.40;99.90
16846;DHT22;8539;53.188;8.696;2023-02-18T06:52:57;6.40;99.90
16846;DHT22;8539;53.188;8.696;2023-02-18T06:55:24;6.50;99.90
16846;DHT22;8539;53.188;8.696;2023-02-18T06:57:50;6.40;99.90
16846;DHT22;8539;53.188;8.696;2023-02-18T07:00:17;6.50;99.90
16846;DHT22;8539;53.188;8.696;2023-02-18T07:02:43;6.50;99.90
16846;DHT22;8539;53.188;8.696;2023-02-18T07:05:09;6.50;99.90
16846;DHT22;8539;53.188;8.696;2023-02-18T07:07:35;6.60;99.90
16846;DHT22;8539;53.188;8.696;2023-02-18T07:10:02;6.50;99.90
16846;DHT22;8539;53.188;8.696;2023-02-18T07:12:29;6.50;99.90
16846;DHT22;8539;53.188;8.696;2023-02-18T07:14:55;6.50;99.90
16846;DHT22;8539;53.188;8.696;2023-02-18T07:17:21;6.50;99.90
16846;DHT22;8539;53.188;8.696;2023-02-18T07:19:47;6.60;99.90
16846;DHT22;8539;53.188;8.696;2023-02-18T07:22:13;6.60;99.90
16846;DHT22;8539;53.188;8.696;2023-02-18T07:24:39;6.60;99.90
16846;DHT22;8539;53.188;8.696;2023-02-18T07:27:05;6.60;99.90
16846;DHT22;8539;53.188;8.696;2023-02-18T07:29:31;6.60;99.90
16846;DHT22;8539;53.188;8.696;2023-02-18T07:31:57;6.60;99.90
16846;DHT22;8539;53.188;8.696;2023-02-18T07:34:23;6.60;99.90
16846;DHT22;8539;53.188;8.696;2023-02-18T07:36:49;6.60;99.90
16846;DHT22;8539;53.188;8.696;2023-02-18T07:39:16;6.60;99.90
16846;DHT22;8539;53.188;8.696;2023-02-18T07:41:46;6.70;99.90
16846;DHT22;8539;53.188;8.696;2023-02-18T07:44:13;6.70;99.90
16846;DHT22;8539;53.188;8.696;2023-02-18T07:46:40;6.80;99.90
16846;DHT22;8539;53.188;8.696;2023-02-18T07:49:07;6.80;99.90
16846;DHT22;8539;53.188;8.696;2023-02-18T07:51:33;7.00;99.90
16846;DHT22;8539;53.188;8.696;2023-02-18T07:54:00;7.00;99.90
16846;DHT22;8539;53.188;8.696;2023-02-18T07:56:26;7.10;99.90
16846;DHT22;8539;53.188;8.696;2023-02-18T07:58:52;7.20;99.90
16846;DHT22;8539;53.188;8.696;2023-02-18T08:01:18;7.20;99.90
16846;DHT22;8539;53.188;8.696;2023-02-18T08:03:44;7.30;99.90
16846;DHT22;8539;53.188;8.696;2023-02-18T08:06:30;7.40;99.90
16846;DHT22;8539;53.188;8.696;2023-02-18T08:08:56;7.40;99.90
16846;DHT22;8539;53.188;8.696;2023-02-18T08:11:22;7.40;99.90
16846;DHT22;8539;53.188;8.696;2023-02-18T08:13:48;7.50;99.90
16846;DHT22;8539;53.188;8.696;2023-02-18T08:16:16;7.60;99.90
16846;DHT22;8539;53.188;8.696;2023-02-18T08:18:42;7.50;99.90
16846;DHT22;8539;53.188;8.696;2023-02-18T08:21:09;7.50;99.90
16846;DHT22;8539;53.188;8.696;2023-02-18T08:23:35;7.70;99.90
16846;DHT22;8539;53.188;8.696;2023-02-18T08:26:01;7.60;99.90
16846;DHT22;8539;53.188;8.696;2023-02-18T08:28:27;7.70;99.90
16846;DHT22;8539;53.188;8.696;2023-02-18T08:30:53;7.70;99.90
16846;DHT22;8539;53.188;8.696;2023-02-18T08:33:21;7.80;99.90
16846;DHT22;8539;53.188;8.696;2023-02-18T08:35:49;7.90;99.90
16846;DHT22;8539;53.188;8.696;2023-02-18T08:38:16;8.00;99.90
16846;DHT22;8539;53.188;8.696;2023-02-18T08:40:42;8.20;99.90
16846;DHT22;8539;53.188;8.696;2023-02-18T08:43:08;8.30;99.90
16846;DHT22;8539;53.188;8.696;2023-02-18T08:45:36;8.40;99.90
16846;DHT22;8539;53.188;8.696;2023-02-18T08:48:04;8.50;99.90
16846;DHT22;8539;53.188;8.696;2023-02-18T08:50:31;8.60;99.90
16846;DHT22;8539;53.188;8.696;2023-02-18T08:53:01;8.70;99.90
16846;DHT22;8539;53.188;8.696;2023-02-18T08:55:32;8.80;99.90
16846;DHT22;8539;53.188;8.696;2023-02-18T08:57:59;8.90;99.90
16846;DHT22;8539;53.188;8.696;2023-02-18T09:00:26;9.00;99.90
16846;DHT22;8539;53.188;8.696;2023-02-18T09:02:52;9.00;99.90
16846;DHT22;8539;53.188;8.696;2023-02-18T09:05:18;9.10;99.90
16846;DHT22;8539;53.188;8.696;2023-02-18T09:07:44;9.20;99.90
16846;DHT22;8539;53.188;8.696;2023-02-18T09:10:10;9.20;99.90
16846;DHT22;8539;53.188;8.696;2023-02-18T09:12:36;9.30;99.90
16846;DHT22;8539;53.188;8.696;2023-02-18T09:15:03;9.30;99.90
16846;DHT22;8539;53.188;8.696;2023-02-18T09:17:29;9.40;99.90
16846;DHT22;8539;53.188;8.696;2023-02-18T09:19:56;9.40;99.90
16846;DHT22;8539;53.188;8.696;2023-02-18T09:22:22;9.40;99.90
16846;DHT22;8539;53.188;8.696;2023-02-18T09:24:49;9.50;99.90
16846;DHT22;8539;53.188;8.696;2023-02-18T09:27:15;9.50;99.90
16846;DHT22;8539;53.188;8.696;2023-02-18T09:29:41;9.60;99.90
16846;DHT22;8539;53.188;8.696;2023-02-18T09:32:08;9.60;99.90
16846;DHT22;8539;53.188;8.696;2023-02-18T09:34:35;9.60;99.90
16846;DHT22;8539;53.188;8.696;2023-02-18T09:37:03;9.70;99.90
16846;DHT22;8539;53.188;8.696;2023-02-18T09:39:29;9.70;99.90
16846;DHT22;8539;53.188;8.696;2023-02-18T09:41:58;9.70;99.90
16846;DHT22;8539;53.188;8.696;2023-02-18T09:47:37;9.70;99.90
16846;DHT22;8539;53.188;8.696;2023-02-18T09:50:15;9.70;99.90
16846;DHT22;8539;53.188;8.696;2023-02-18T09:52:43;9.70;99.90
16846;DHT22;8539;53.188;8.696;2023-02-18T09:55:17;9.70;99.90
16846;DHT22;8539;53.188;8.696;2023-02-18T09:57:50;9.70;99.90
16846;DHT22;8539;53.188;8.696;2023-02-18T10:00:44;9.70;99.90
16846;DHT22;8539;53.188;8.696;2023-02-18T10:03:15;9.70;99.90
16846;DHT22;8539;53.188;8.696;2023-02-18T10:06:03;9.70;99.90
16846;DHT22;8539;53.188;8.696;2023-02-18T10:08:35;9.80;99.90
16846;DHT22;8539;53.188;8.696;2023-02-18T10:11:01;9.80;99.90
16846;DHT22;8539;53.188;8.696;2023-02-18T10:13:30;9.80;99.90
16846;DHT22;8539;53.188;8.696;2023-02-18T10:15:56;9.80;99.90
16846;DHT22;8539;53.188;8.696;2023-02-18T10:18:41;9.70;99.90
16846;DHT22;8539;53.188;8.696;2023-02-18T10:21:29;9.70;99.90
16846;DHT22;8539;53.188;8.696;2023-02-18T10:24:03;9.70;99.90
16846;DHT22;8539;53.188;8.696;2023-02-18T10:26:33;9.70;99.90
16846;DHT22;8539;53.188;8.696;2023-02-18T10:29:00;9.70;99.90
16846;DHT22;8539;53.188;8.696;2023-02-18T10:31:36;9.70;99.90
16846;DHT22;8539;53.188;8.696;2023-02-18T10:34:06;9.70;99.90
16846;DHT22;8539;53.188;8.696;2023-02-18T10:50:07;9.60;99.90
16846;DHT22;8539;53.188;8.696;2023-02-18T10:52:39;9.60;99.90
16846;DHT22;8539;53.188;8.696;2023-02-18T10:55:09;9.70;99.90
16846;DHT22;8539;53.188;8.696;2023-02-18T10:57:46;9.70;99.90
16846;DHT22;8539;53.188;8.696;2023-02-18T11:03:17;9.70;99.90
16846;DHT22;8539;53.188;8.696;2023-02-18T11:05:45;9.70;99.90
16846;DHT22;8539;53.188;8.696;2023-02-18T11:08:19;9.70;99.90
16846;DHT22;8539;53.188;8.696;2023-02-18T11:10:48;9.70;99.90
16846;DHT22;8539;53.188;8.696;2023-02-18T11:13:17;9.70;99.90
16846;DHT22;8539;53.188;8.696;2023-02-18T11:16:04;9.70;99.90
16846;DHT22;8539;53.188;8.696;2023-02-18T11:18:39;9.70;99.90
16846;DHT22;8539;53.188;8.696;2023-02-18T11:21:30;9.70;99.90
16846;DHT22;8539;53.188;8.696;2023-02-18T11:24:08;9.70;99.90
16846;DHT22;8539;53.188;8.696;2023-02-18T11:26:36;9.70;99.90
16846;DHT22;8539;53.188;8.696;2023-02-18T11:29:20;9.70;99.90
16846;DHT22;8539;53.188;8.696;2023-02-18T11:31:48;9.70;99.90
16846;DHT22;8539;53.188;8.696;2023-02-18T11:34:27;9.70;99.90
16846;DHT22;8539;53.188;8.696;2023-02-18T11:36:54;9.70;99.90
16846;DHT22;8539;53.188;8.696;2023-02-18T11:39:26;9.70;99.90
16846;DHT22;8539;53.188;8.696;2023-02-18T11:41:58;9.60;99.90
16846;DHT22;8539;53.188;8.696;2023-02-18T11:47:16;9.70;99.90
16846;DHT22;8539;53.188;8.696;2023-02-18T11:52:38;9.60;99.90
16846;DHT22;8539;53.188;8.696;2023-02-18T11:57:38;9.70;99.90
16846;DHT22;8539;53.188;8.696;2023-02-18T12:00:38;9.70;99.90
16846;DHT22;8539;53.188;8.696;2023-02-18T12:05:51;9.70;99.90
16846;DHT22;8539;53.188;8.696;2023-02-18T12:08:23;9.70;99.90
16846;DHT22;8539;53.188;8.696;2023-02-18T12:10:53;9.70;99.90
16846;DHT22;8539;53.188;8.696;2023-02-18T12:16:40;9.70;99.90
16846;DHT22;8539;53.188;8.696;2023-02-18T12:25:14;9.80;99.90
16846;DHT22;8539;53.188;8.696;2023-02-18T12:27:31;9.70;99.90
16846;DHT22;8539;53.188;8.696;2023-02-18T12:30:20;9.70;99.90
16846;DHT22;8539;53.188;8.696;2023-02-18T12:33:06;9.70;99.90
16846;DHT22;8539;53.188;8.696;2023-02-18T12:58:12;9.70;99.90
16846;DHT22;8539;53.188;8.696;2023-02-18T13:03:36;9.70;99.90
16846;DHT22;8539;53.188;8.696;2023-02-18T13:06:54;9.70;99.90
16846;DHT22;8539;53.188;8.696;2023-02-18T13:14:03;9.80;99.90
16846;DHT22;8539;53.188;8.696;2023-02-18T13:16:34;9.80;99.90
16846;DHT22;8539;53.188;8.696;2023-02-18T13:19:26;9.80;99.90
16846;DHT22;8539;53.188;8.696;2023-02-18T13:22:01;9.80;99.90
16846;DHT22;8539;53.188;8.696;2023-02-18T13:24:37;9.80;99.90
16846;DHT22;8539;53.188;8.696;2023-02-18T13:30:12;9.90;99.90
16846;DHT22;8539;53.188;8.696;2023-02-18T13:32:57;9.90;99.90
16846;DHT22;8539;53.188;8.696;2023-02-18T13:38:35;9.90;99.90
16846;DHT22;8539;53.188;8.696;2023-02-18T13:41:10;9.90;99.90
16846;DHT22;8539;53.188;8.696;2023-02-18T13:43:36;9.90;99.90
16846;DHT22;8539;53.188;8.696;2023-02-18T13:46:10;10.00;99.90
16846;DHT22;8539;53.188;8.696;2023-02-18T13:48:43;9.90;99.90
16846;DHT22;8539;53.188;8.696;2023-02-18T13:51:12;9.90;99.90
16846;DHT22;8539;53.188;8.696;2023-02-18T13:53:48;9.80;99.90
16846;DHT22;8539;53.188;8.696;2023-02-18T13:59:06;9.90;99.90
16846;DHT22;8539;53.188;8.696;2023-02-18T14:04:32;9.90;99.90
16846;DHT22;8539;53.188;8.696;2023-02-18T14:09:51;9.80;99.90
16846;DHT22;8539;53.188;8.696;2023-02-18T14:14:58;9.80;99.90
16846;DHT22;8539;53.188;8.696;2023-02-18T14:17:37;9.80;99.90
16846;DHT22;8539;53.188;8.696;2023-02-18T14:22:33;10.00;99.90
16846;DHT22;8539;53.188;8.696;2023-02-18T14:27:35;9.90;99.90
16846;DHT22;8539;53.188;8.696;2023-02-18T14:30:04;9.90;99.90
16846;DHT22;8539;53.188;8.696;2023-02-18T14:32:32;9.90;99.90
16846;DHT22;8539;53.188;8.696;2023-02-18T14:35:03;9.90;99.90
16846;DHT22;8539;53.188;8.696;2023-02-18T14:43:21;10.00;99.90
16846;DHT22;8539;53.188;8.696;2023-02-18T14:48:39;10.00;99.90
16846;DHT22;8539;53.188;8.696;2023-02-18T14:51:07;10.00;99.90
16846;DHT22;8539;53.188;8.696;2023-02-18T14:53:40;10.00;99.90
16846;DHT22;8539;53.188;8.696;2023-02-18T14:56:08;10.00;99.90
16846;DHT22;8539;53.188;8.696;2023-02-18T14:58:37;10.00;99.90
16846;DHT22;8539;53.188;8.696;2023-02-18T15:03:52;9.90;99.90
16846;DHT22;8539;53.188;8.696;2023-02-18T15:06:30;9.90;99.90
16846;DHT22;8539;53.188;8.696;2023-02-18T15:09:00;9.90;99.90
16846;DHT22;8539;53.188;8.696;2023-02-18T15:11:40;9.90;99.90
16846;DHT22;8539;53.188;8.696;2023-02-18T15:14:16;9.90;99.90
16846;DHT22;8539;53.188;8.696;2023-02-18T15:16:43;9.80;99.90
16846;DHT22;8539;53.188;8.696;2023-02-18T15:19:15;9.80;99.90
16846;DHT22;8539;53.188;8.696;2023-02-18T15:21:45;9.70;99.90
16846;DHT22;8539;53.188;8.696;2023-02-18T15:24:25;9.70;99.90
16846;DHT22;8539;53.188;8.696;2023-02-18T15:26:53;9.70;99.90
16846;DHT22;8539;53.188;8.696;2023-02-18T15:29:23;9.70;99.90
16846;DHT22;8539;53.188;8.696;2023-02-18T15:31:50;9.60;99.90
16846;DHT22;8539;53.188;8.696;2023-02-18T15:36:59;9.50;99.90
16846;DHT22;8539;53.188;8.696;2023-02-18T15:39:25;9.40;99.90
16846;DHT22;8539;53.188;8.696;2023-02-18T15:41:54;9.40;99.90
16846;DHT22;8539;53.188;8.696;2023-02-18T15:44:23;9.40;99.90
16846;DHT22;8539;53.188;8.696;2023-02-18T15:46:50;9.40;99.90
16846;DHT22;8539;53.188;8.696;2023-02-18T15:49:20;9.50;99.90
16846;DHT22;8539;53.188;8.696;2023-02-18T15:51:48;9.40;99.90
16846;DHT22;8539;53.188;8.696;2023-02-18T15:54:17;9.40;99.90
16846;DHT22;8539;53.188;8.696;2023-02-18T15:57:04;9.40;99.90
16846;DHT22;8539;53.188;8.696;2023-02-18T15:59:56;9.40;99.90
16846;DHT22;8539;53.188;8.696;2023-02-18T16:02:24;9.40;99.90
16846;DHT22;8539;53.188;8.696;2023-02-18T16:04:59;9.40;99.90
16846;DHT22;8539;53.188;8.696;2023-02-18T16:07:27;9.40;99.90
16846;DHT22;8539;53.188;8.696;2023-02-18T16:12:45;9.40;99.90
16846;DHT22;8539;53.188;8.696;2023-02-18T16:15:40;9.40;99.90
16846;DHT22;8539;53.188;8.696;2023-02-18T16:18:05;9.40;99.90
16846;DHT22;8539;53.188;8.696;2023-02-18T16:20:33;9.40;99.90
16846;DHT22;8539;53.188;8.696;2023-02-18T16:23:12;9.20;99.90
16846;DHT22;8539;53.188;8.696;2023-02-18T16:25:43;9.10;99.90
16846;DHT22;8539;53.188;8.696;2023-02-18T16:28:31;9.10;99.90
16846;DHT22;8539;53.188;8.696;2023-02-18T16:30:57;9.00;99.90
16846;DHT22;8539;53.188;8.696;2023-02-18T16:33:23;8.90;99.90
16846;DHT22;8539;53.188;8.696;2023-02-18T16:35:49;8.90;99.90
16846;DHT22;8539;53.188;8.696;2023-02-18T16:38:20;8.90;99.90
16846;DHT22;8539;53.188;8.696;2023-02-18T16:40:47;8.90;99.90
16846;DHT22;8539;53.188;8.696;2023-02-18T16:43:22;8.90;99.90
16846;DHT22;8539;53.188;8.696;2023-02-18T16:45:55;8.90;99.90
16846;DHT22;8539;53.188;8.696;2023-02-18T16:48:33;8.80;99.90
16846;DHT22;8539;53.188;8.696;2023-02-18T16:51:02;8.80;99.90
16846;DHT22;8539;53.188;8.696;2023-02-18T16:53:29;8.80;99.90
16846;DHT22;8539;53.188;8.696;2023-02-18T16:55:55;8.80;99.90
16846;DHT22;8539;53.188;8.696;2023-02-18T16:58:22;8.80;99.90
16846;DHT22;8539;53.188;8.696;2023-02-18T17:00:50;8.80;99.90
16846;DHT22;8539;53.188;8.696;2023-02-18T17:03:17;8.80;99.90
16846;DHT22;8539;53.188;8.696;2023-02-18T17:05:44;8.70;99.90
16846;DHT22;8539;53.188;8.696;2023-02-18T17:08:16;8.70;99.90
16846;DHT22;8539;53.188;8.696;2023-02-18T17:10:48;8.60;99.90
16846;DHT22;8539;53.188;8.696;2023-02-18T17:13:16;8.60;99.90
16846;DHT22;8539;53.188;8.696;2023-02-18T17:15:43;8.60;99.90
16846;DHT22;8539;53.188;8.696;2023-02-18T17:18:09;8.60;99.90
16846;DHT22;8539;53.188;8.696;2023-02-18T17:20:36;8.60;99.90
16846;DHT22;8539;53.188;8.696;2023-02-18T17:23:02;8.50;99.90
16846;DHT22;8539;53.188;8.696;2023-02-18T17:25:38;8.50;99.90
16846;DHT22;8539;53.188;8.696;2023-02-18T17:28:05;8.60;99.90
16846;DHT22;8539;53.188;8.696;2023-02-18T17:30:35;8.50;99.90
16846;DHT22;8539;53.188;8.696;2023-02-18T17:33:02;8.50;99.90
16846;DHT22;8539;53.188;8.696;2023-02-18T17:35:29;8.50;99.90
16846;DHT22;8539;53.188;8.696;2023-02-18T17:37:55;8.50;99.90
16846;DHT22;8539;53.188;8.696;2023-02-18T17:40:24;8.50;99.90
16846;DHT22;8539;53.188;8.696;2023-02-18T17:42:52;8.50;99.90
16846;DHT22;8539;53.188;8.696;2023-02-18T17:47:58;8.40;99.90
16846;DHT22;8539;53.188;8.696;2023-02-18T17:50:26;8.40;99.90
16846;DHT22;8539;53.188;8.696;2023-02-18T17:52:52;8.40;99.90
16846;DHT22;8539;53.188;8.696;2023-02-18T17:55:30;8.30;99.90
16846;DHT22;8539;53.188;8.696;2023-02-18T17:57:56;8.30;99.90
16846;DHT22;8539;53.188;8.696;2023-02-18T18:00:31;8.30;99.90
16846;DHT22;8539;53.188;8.696;2023-02-18T18:02:58;8.20;99.90
16846;DHT22;8539;53.188;8.696;2023-02-18T18:05:27;8.20;99.90
16846;DHT22;8539;53.188;8.696;2023-02-18T18:07:54;8.10;99.90
16846;DHT22;8539;53.188;8.696;2023-02-18T18:10:22;8.10;99.90
16846;DHT22;8539;53.188;8.696;2023-02-18T18:12:53;8.10;99.90
16846;DHT22;8539;53.188;8.696;2023-02-18T18:17:59;8.00;99.90
16846;DHT22;8539;53.188;8.696;2023-02-18T18:20:27;8.10;99.90
16846;DHT22;8539;53.188;8.696;2023-02-18T18:22:57;8.00;99.90
16846;DHT22;8539;53.188;8.696;2023-02-18T18:25:29;8.00;99.90
16846;DHT22;8539;53.188;8.696;2023-02-18T18:27:55;8.00;99.90
16846;DHT22;8539;53.188;8.696;2023-02-18T18:30:24;8.00;99.90
16846;DHT22;8539;53.188;8.696;2023-02-18T18:32:51;8.00;99.90
16846;DHT22;8539;53.188;8.696;2023-02-18T18:35:26;8.00;99.90
16846;DHT22;8539;53.188;8.696;2023-02-18T18:37:53;8.00;99.90
16846;DHT22;8539;53.188;8.696;2023-02-18T18:40:21;7.90;99.90
16846;DHT22;8539;53.188;8.696;2023-02-18T18:42:48;7.90;99.90
16846;DHT22;8539;53.188;8.696;2023-02-18T18:45:17;7.90;99.90
16846;DHT22;8539;53.188;8.696;2023-02-18T18:47:44;7.90;99.90